AirNav   Air Wisconsin pilot careers
 
 875 users online  

M44 Houston Municipal Airport
Houston, Mississippi, USA


FAA INFORMATION EFFECTIVE 09 NOVEMBER 2017

Location

FAA Identifier: M44
Lat/Long: 33-53-11.3750N / 089-01-22.7300W
33-53.189583N / 089-01.378833W
33.8864931 / -89.0229806
(estimated)
Elevation: 337.7 ft. / 102.9 m (surveyed)
Variation: 02E (1985)
From city: 2 miles SW of HOUSTON, MS
Time zone: UTC -6 (UTC -5 during Daylight Saving Time)
Zip code: 38851

Airport Operations

Airport use: Open to the public
Activation date: 04/1940
Control tower: no
ARTCC: MEMPHIS CENTER
FSS: GREENWOOD FLIGHT SERVICE STATION
NOTAMs facility: GWO (NOTAM-D service available)
Attendance: MON-FRI 24 HOURS/DAY, ALL SAT-SUN ON CALL
FOR ARPT ATTENDANT SAT & SUN CALL 662-456-8484.
Wind indicator: lighted
Segmented circle: yes
Lights: ACTVT MIRL RY 03/21 - CTAF. PAPI RYS 03 & 21 OPER CONTINUOUSLY.
Beacon: white-green (lighted land airport)
Operates sunset to sunrise.

Airport Communications

CTAF: 122.9

Nearby radio navigation aids

VOR radial/distance  VOR name  Freq  Var
OTBr205/23.1TUPELO VOR/DME109.8004E
CBMr297/32.6CALEDONIA VORTAC115.2000E
IGBr309/35.0BIGBEE VORTAC116.2004E

Airport Services

Parking: tiedowns
Bottled oxygen: NONE
Bulk oxygen: NONE

Runway Information

Runway 3/21

Dimensions: 4400 x 75 ft. / 1341 x 23 m
Surface: asphalt, in good condition
Weight bearing capacity: 
Single wheel: 26.0
Runway edge lights: medium intensity
RUNWAY 3  RUNWAY 21
Latitude: 33-52.873833N33-53.505333N
Longitude: 089-01.592833W089-01.164833W
Elevation: 337.7 ft.329.1 ft.
Gradient: 0.3%0.3%
Traffic pattern: leftleft
Markings: basic, in good conditionbasic, in good condition
Visual slope indicator: 2-light PAPI on left (3.00 degrees glide path)2-light PAPI on left (3.00 degrees glide path)
Touchdown point: yes, no lightsyes, no lights
Obstructions: 65 ft. trees, 1510 ft. from runway, 20:1 slope to clear48 ft. trees, 1425 ft. from runway, 200 ft. left of centerline, 25:1 slope to clear

Airport Ownership and Management from official FAA records

Ownership: Publicly-owned
Owner: CITY OF HOUSTON
PO BOX 548
HOUSTON, MS 38851
Phone 662-456-2328
Manager: JACK LEWIS
CITY OF HOUSTON, PO BOX 548
HOUSTON, MS 38851
Phone 662-456-0030
CELL PHONE 662-456-8484.

Airport Operational Statistics

Aircraft based on the field: 11
Single engine airplanes: 10
Ultralights: 1
    
Aircraft operations: avg 42/day *
54% transient general aviation
39% local general aviation
7% military
* for 12-month period ending 11 January 2017

Additional Remarks

FUEL AVBL IN EMERGENCY ONLY; FUEL TANKS PRIVATELY OWNED.

Instrument Procedures

There are no published instrument procedures at M44.

Some nearby airports with instrument procedures:

5A4 - Okolona Municipal Airport-Richard Stovall Field (17 nm NE)
M83 - McCharen Field Airport (25 nm SE)
KTUP - Tupelo Regional Airport (26 nm NE)
M40 - Monroe County Airport (27 nm E)
KSTF - George M Bryan Airport (29 nm S)
 
Loc | Ops | Rwys | IFR | FBO | Links
Com | Nav | Svcs | Stats | Notes


 
Area around M44 (Houston Municipal Airport)
 
Road maps at: MapQuest Bing Google
 
Aerial photo
WARNING: Photo may not be current or correct
Aerial photo of M44 (Houston Municipal Airport)
Do you have a better or more recent aerial photo of Houston Municipal Airport that you would like to share? If so, please send us your photo.

 
Sectional chart

 
Airport distance calculator
Flying to Houston Municipal Airport? Find the distance to fly.

From to M44

Sunrise and sunset
Times for 19-Nov-2017
 Local
(UTC-6)
 Zulu
(UTC)
Morning civil twilight06:0612:06
Sunrise06:3312:33
Sunset16:5022:50
Evening civil twilight17:1723:17

Current date and time
Zulu (UTC)  20-Nov-2017 01:44:06
Local (UTC-6)  19-Nov-2017 19:44:06
 
METAR
KTUP 
26nm NE 
200053Z 32006KT 10SM CLR 06/M03 A3022 RMK AO2 SLP234 T00611033
KM40 
27nm E 
200115Z AUTO 35005KT 10SM CLR 05/01 A3022 RMK AO2
KSTF 
29nm S 
200115Z AUTO 00000KT 10SM CLR 05/00 A3022 RMK AO2
KCBM 
32nm SE 
200056Z AUTO 34006KT 10SM CLR 06/M01 A3020 RMK AO2 SLP231 T00551006 TSNO $
KGTR 
35nm SE 
200056Z 33004KT 10SM CLR 07/M01 A3021 RMK AO2 SLP233 T00671011
KUOX 
39nm NW 
190915Z AUTO 32007KT 10SM CLR 05/01 A3014 RMK AO2
K5A6 
43nm SW 
200115Z AUTO 36005KT 10SM CLR 07/M03 A3022 RMK AO2 T00651035
TAF
KTUP 
26nm NE 
192133Z 1922/2018 32009KT P6SM SKC FM200100 VRB03KT P6SM SKC FM201600 14005KT P6SM FEW250
KCBM 
32nm SE 
192252Z 1922/2023 30010G15KT 9999 FEW030 QNH3013INS BECMG 1923/1924 34006KT 9999 SKC QNH3014INS TX13/1922Z TN00/2012Z LAST NO AMDS AFT 1923 NEXT 2009
NOTAMs
Click for the latest NOTAMs
NOTAMs are issued by the DoD/FAA and will open in a separate window not controlled by AirNav.

 

 
 

Would you like to see your business listed on this page?

 If your business provides an interesting product or service to pilots, flight crews, aircraft, or users of the Houston Municipal Airport, you should consider listing it here.  To start the listing process, click on the button below
 
Add a business
 

Other Pages about Houston Municipal Airport

Update a link
 
Copyright © AirNav, LLC. All rights reserved. Privacy Policy  Contact